sensor_id;sensor_type;location;lat;lon;timestamp;P1;durP1;ratioP1;P2;durP2;ratioP2
23868;SDS011;12115;47.128;15.422;2023-03-26T00:01:33;4.15;;;2.20;;
23868;SDS011;12115;47.128;15.422;2023-03-26T00:04:04;2.92;;;2.05;;
23868;SDS011;12115;47.128;15.422;2023-03-26T00:06:34;2.75;;;1.45;;
23868;SDS011;12115;47.128;15.422;2023-03-26T00:09:06;3.40;;;1.40;;
23868;SDS011;12115;47.128;15.422;2023-03-26T00:11:35;2.03;;;1.55;;
23868;SDS011;12115;47.128;15.422;2023-03-26T00:14:02;1.92;;;1.50;;
23868;SDS011;12115;47.128;15.422;2023-03-26T00:16:32;1.50;;;1.00;;
23868;SDS011;12115;47.128;15.422;2023-03-26T00:18:59;3.05;;;1.80;;
23868;SDS011;12115;47.128;15.422;2023-03-26T00:21:28;3.55;;;1.95;;
23868;SDS011;12115;47.128;15.422;2023-03-26T00:23:58;4.97;;;1.55;;
23868;SDS011;12115;47.128;15.422;2023-03-26T00:26:30;3.17;;;2.13;;
23868;SDS011;12115;47.128;15.422;2023-03-26T00:28:59;3.63;;;2.15;;
23868;SDS011;12115;47.128;15.422;2023-03-26T00:31:29;6.28;;;2.45;;
23868;SDS011;12115;47.128;15.422;2023-03-26T00:33:57;3.08;;;1.92;;
23868;SDS011;12115;47.128;15.422;2023-03-26T00:36:25;2.65;;;2.00;;
23868;SDS011;12115;47.128;15.422;2023-03-26T00:38:52;4.85;;;2.08;;
23868;SDS011;12115;47.128;15.422;2023-03-26T00:41:22;7.03;;;1.90;;
23868;SDS011;12115;47.128;15.422;2023-03-26T00:43:53;4.82;;;2.10;;
23868;SDS011;12115;47.128;15.422;2023-03-26T00:46:29;4.80;;;2.92;;
23868;SDS011;12115;47.128;15.422;2023-03-26T00:48:58;3.65;;;2.10;;
23868;SDS011;12115;47.128;15.422;2023-03-26T00:51:26;3.50;;;1.90;;
23868;SDS011;12115;47.128;15.422;2023-03-26T00:53:54;3.00;;;1.90;;
23868;SDS011;12115;47.128;15.422;2023-03-26T00:56:22;3.33;;;1.90;;
23868;SDS011;12115;47.128;15.422;2023-03-26T00:58:49;3.33;;;2.33;;
23868;SDS011;12115;47.128;15.422;2023-03-26T01:01:21;4.00;;;2.65;;
23868;SDS011;12115;47.128;15.422;2023-03-26T01:03:55;6.15;;;3.05;;
23868;SDS011;12115;47.128;15.422;2023-03-26T01:06:35;3.42;;;2.50;;
23868;SDS011;12115;47.128;15.422;2023-03-26T01:09:17;6.85;;;3.05;;
23868;SDS011;12115;47.128;15.422;2023-03-26T01:11:46;3.92;;;2.05;;
23868;SDS011;12115;47.128;15.422;2023-03-26T01:14:16;3.67;;;2.33;;
23868;SDS011;12115;47.128;15.422;2023-03-26T01:17:03;3.78;;;2.22;;
23868;SDS011;12115;47.128;15.422;2023-03-26T01:22:23;5.65;;;2.85;;
23868;SDS011;12115;47.128;15.422;2023-03-26T01:24:52;5.45;;;2.40;;
23868;SDS011;12115;47.128;15.422;2023-03-26T01:27:56;6.10;;;3.55;;
23868;SDS011;12115;47.128;15.422;2023-03-26T01:38:50;3.50;;;2.10;;
23868;SDS011;12115;47.128;15.422;2023-03-26T01:46:32;1.67;;;1.40;;
23868;SDS011;12115;47.128;15.422;2023-03-26T01:49:03;1.35;;;1.25;;
23868;SDS011;12115;47.128;15.422;2023-03-26T01:51:33;1.73;;;1.20;;
23868;SDS011;12115;47.128;15.422;2023-03-26T01:54:02;2.25;;;1.40;;
23868;SDS011;12115;47.128;15.422;2023-03-26T01:57:18;2.97;;;1.42;;
23868;SDS011;12115;47.128;15.422;2023-03-26T02:12:12;1.80;;;1.10;;
23868;SDS011;12115;47.128;15.422;2023-03-26T02:14:42;1.77;;;1.23;;
23868;SDS011;12115;47.128;15.422;2023-03-26T02:17:10;1.90;;;1.42;;
23868;SDS011;12115;47.128;15.422;2023-03-26T02:19:37;1.67;;;1.02;;
23868;SDS011;12115;47.128;15.422;2023-03-26T02:22:08;2.97;;;1.10;;
23868;SDS011;12115;47.128;15.422;2023-03-26T02:24:37;1.30;;;1.00;;
23868;SDS011;12115;47.128;15.422;2023-03-26T02:27:05;1.63;;;1.10;;
23868;SDS011;12115;47.128;15.422;2023-03-26T02:29:39;1.98;;;1.35;;
23868;SDS011;12115;47.128;15.422;2023-03-26T02:32:09;3.03;;;1.33;;
23868;SDS011;12115;47.128;15.422;2023-03-26T02:37:45;1.45;;;1.30;;
23868;SDS011;12115;47.128;15.422;2023-03-26T02:40:19;2.67;;;1.20;;
23868;SDS011;12115;47.128;15.422;2023-03-26T02:45:17;2.45;;;1.52;;
23868;SDS011;12115;47.128;15.422;2023-03-26T02:48:20;1.58;;;1.05;;
23868;SDS011;12115;47.128;15.422;2023-03-26T02:51:09;0.95;;;0.93;;
23868;SDS011;12115;47.128;15.422;2023-03-26T02:53:56;1.80;;;1.30;;
23868;SDS011;12115;47.128;15.422;2023-03-26T02:56:47;1.15;;;1.00;;
23868;SDS011;12115;47.128;15.422;2023-03-26T02:59:35;1.60;;;1.27;;
23868;SDS011;12115;47.128;15.422;2023-03-26T03:02:20;5.55;;;1.05;;
23868;SDS011;12115;47.128;15.422;2023-03-26T03:04:53;1.25;;;1.15;;
23868;SDS011;12115;47.128;15.422;2023-03-26T03:07:31;2.63;;;1.52;;
23868;SDS011;12115;47.128;15.422;2023-03-26T03:09:59;1.45;;;1.08;;
23868;SDS011;12115;47.128;15.422;2023-03-26T03:12:51;2.53;;;1.27;;
23868;SDS011;12115;47.128;15.422;2023-03-26T03:15:19;1.45;;;1.25;;
23868;SDS011;12115;47.128;15.422;2023-03-26T03:17:47;1.77;;;1.25;;
23868;SDS011;12115;47.128;15.422;2023-03-26T03:20:14;2.22;;;1.38;;
23868;SDS011;12115;47.128;15.422;2023-03-26T03:22:42;2.65;;;1.50;;
23868;SDS011;12115;47.128;15.422;2023-03-26T03:25:09;3.60;;;1.40;;
23868;SDS011;12115;47.128;15.422;2023-03-26T03:27:40;4.40;;;2.47;;
23868;SDS011;12115;47.128;15.422;2023-03-26T03:30:11;1.98;;;1.25;;
23868;SDS011;12115;47.128;15.422;2023-03-26T03:33:02;1.27;;;0.90;;
23868;SDS011;12115;47.128;15.422;2023-03-26T03:35:33;1.50;;;1.20;;
23868;SDS011;12115;47.128;15.422;2023-03-26T03:38:00;1.20;;;1.10;;
23868;SDS011;12115;47.128;15.422;2023-03-26T03:40:34;1.98;;;1.50;;
23868;SDS011;12115;47.128;15.422;2023-03-26T03:43:02;1.65;;;1.55;;
23868;SDS011;12115;47.128;15.422;2023-03-26T03:45:38;2.38;;;1.30;;
23868;SDS011;12115;47.128;15.422;2023-03-26T03:48:10;1.30;;;1.13;;
23868;SDS011;12115;47.128;15.422;2023-03-26T03:50:41;1.02;;;0.90;;
23868;SDS011;12115;47.128;15.422;2023-03-26T03:56:25;1.73;;;1.00;;
23868;SDS011;12115;47.128;15.422;2023-03-26T03:59:11;2.15;;;0.98;;
23868;SDS011;12115;47.128;15.422;2023-03-26T04:01:40;2.50;;;1.33;;
23868;SDS011;12115;47.128;15.422;2023-03-26T04:04:38;1.17;;;1.00;;
23868;SDS011;12115;47.128;15.422;2023-03-26T04:07:10;1.20;;;1.10;;
23868;SDS011;12115;47.128;15.422;2023-03-26T04:09:58;2.05;;;0.93;;
23868;SDS011;12115;47.128;15.422;2023-03-26T04:12:31;1.10;;;1.00;;
23868;SDS011;12115;47.128;15.422;2023-03-26T04:15:06;1.48;;;1.20;;
23868;SDS011;12115;47.128;15.422;2023-03-26T04:17:33;1.30;;;1.10;;
23868;SDS011;12115;47.128;15.422;2023-03-26T04:20:10;3.08;;;1.08;;
23868;SDS011;12115;47.128;15.422;2023-03-26T04:22:44;1.42;;;0.90;;
23868;SDS011;12115;47.128;15.422;2023-03-26T04:25:14;1.40;;;1.10;;
23868;SDS011;12115;47.128;15.422;2023-03-26T04:27:48;1.05;;;0.95;;
23868;SDS011;12115;47.128;15.422;2023-03-26T04:30:34;2.05;;;1.00;;
23868;SDS011;12115;47.128;15.422;2023-03-26T04:33:23;2.65;;;1.10;;
23868;SDS011;12115;47.128;15.422;2023-03-26T04:35:55;2.55;;;1.10;;
23868;SDS011;12115;47.128;15.422;2023-03-26T04:38:36;1.90;;;1.30;;
23868;SDS011;12115;47.128;15.422;2023-03-26T04:41:11;1.95;;;1.00;;
23868;SDS011;12115;47.128;15.422;2023-03-26T04:43:54;2.88;;;1.10;;
23868;SDS011;12115;47.128;15.422;2023-03-26T04:46:39;1.65;;;1.30;;
23868;SDS011;12115;47.128;15.422;2023-03-26T04:49:29;4.13;;;1.33;;
23868;SDS011;12115;47.128;15.422;2023-03-26T04:51:57;1.80;;;1.27;;
23868;SDS011;12115;47.128;15.422;2023-03-26T04:54:51;1.70;;;1.45;;
23868;SDS011;12115;47.128;15.422;2023-03-26T04:57:32;1.52;;;1.00;;
23868;SDS011;12115;47.128;15.422;2023-03-26T05:00:10;2.10;;;1.27;;
23868;SDS011;12115;47.128;15.422;2023-03-26T05:02:51;1.13;;;1.02;;
23868;SDS011;12115;47.128;15.422;2023-03-26T05:07:50;1.10;;;1.00;;
23868;SDS011;12115;47.128;15.422;2023-03-26T05:10:19;1.20;;;1.10;;
23868;SDS011;12115;47.128;15.422;2023-03-26T05:12:51;1.40;;;1.30;;
23868;SDS011;12115;47.128;15.422;2023-03-26T05:15:23;1.45;;;1.35;;
23868;SDS011;12115;47.128;15.422;2023-03-26T05:18:29;1.67;;;1.17;;
23868;SDS011;12115;47.128;15.422;2023-03-26T05:20:59;1.27;;;1.15;;
23868;SDS011;12115;47.128;15.422;2023-03-26T05:23:27;1.52;;;1.23;;
23868;SDS011;12115;47.128;15.422;2023-03-26T05:26:09;3.70;;;1.35;;
23868;SDS011;12115;47.128;15.422;2023-03-26T05:28:36;1.10;;;1.00;;
23868;SDS011;12115;47.128;15.422;2023-03-26T05:31:17;2.53;;;0.93;;
23868;SDS011;12115;47.128;15.422;2023-03-26T05:36:53;3.05;;;0.80;;
23868;SDS011;12115;47.128;15.422;2023-03-26T05:39:57;2.13;;;0.60;;
23868;SDS011;12115;47.128;15.422;2023-03-26T05:43:02;4.25;;;1.38;;
23868;SDS011;12115;47.128;15.422;2023-03-26T05:45:33;0.50;;;0.50;;
23868;SDS011;12115;47.128;15.422;2023-03-26T05:48:11;1.33;;;0.85;;
23868;SDS011;12115;47.128;15.422;2023-03-26T05:50:39;1.38;;;0.90;;
23868;SDS011;12115;47.128;15.422;2023-03-26T05:53:06;2.90;;;1.10;;
23868;SDS011;12115;47.128;15.422;2023-03-26T05:55:46;1.67;;;1.40;;
23868;SDS011;12115;47.128;15.422;2023-03-26T05:58:49;0.95;;;0.95;;
23868;SDS011;12115;47.128;15.422;2023-03-26T06:01:55;5.72;;;2.03;;
23868;SDS011;12115;47.128;15.422;2023-03-26T06:04:43;3.22;;;2.25;;
23868;SDS011;12115;47.128;15.422;2023-03-26T06:07:44;2.20;;;1.15;;
23868;SDS011;12115;47.128;15.422;2023-03-26T06:10:35;3.90;;;1.42;;
23868;SDS011;12115;47.128;15.422;2023-03-26T06:13:04;1.75;;;1.35;;
23868;SDS011;12115;47.128;15.422;2023-03-26T06:15:35;3.63;;;1.63;;
23868;SDS011;12115;47.128;15.422;2023-03-26T06:18:14;5.15;;;1.98;;
23868;SDS011;12115;47.128;15.422;2023-03-26T06:20:54;4.43;;;1.95;;
23868;SDS011;12115;47.128;15.422;2023-03-26T06:23:41;4.75;;;2.50;;
23868;SDS011;12115;47.128;15.422;2023-03-26T06:26:38;3.03;;;2.33;;
23868;SDS011;12115;47.128;15.422;2023-03-26T06:29:24;2.78;;;2.08;;
23868;SDS011;12115;47.128;15.422;2023-03-26T06:32:17;3.50;;;2.40;;
23868;SDS011;12115;47.128;15.422;2023-03-26T06:35:06;3.67;;;2.92;;
23868;SDS011;12115;47.128;15.422;2023-03-26T06:37:34;1.98;;;1.50;;
23868;SDS011;12115;47.128;15.422;2023-03-26T06:43:07;2.60;;;1.45;;
23868;SDS011;12115;47.128;15.422;2023-03-26T06:46:05;3.05;;;1.60;;
23868;SDS011;12115;47.128;15.422;2023-03-26T06:48:36;5.00;;;1.88;;
23868;SDS011;12115;47.128;15.422;2023-03-26T06:51:22;3.33;;;2.78;;
23868;SDS011;12115;47.128;15.422;2023-03-26T06:54:08;3.72;;;2.72;;
23868;SDS011;12115;47.128;15.422;2023-03-26T06:59:47;5.55;;;3.30;;
23868;SDS011;12115;47.128;15.422;2023-03-26T07:02:34;6.25;;;3.30;;
23868;SDS011;12115;47.128;15.422;2023-03-26T07:08:31;5.10;;;2.97;;
23868;SDS011;12115;47.128;15.422;2023-03-26T07:11:19;3.72;;;2.97;;
23868;SDS011;12115;47.128;15.422;2023-03-26T07:13:51;3.75;;;3.00;;
23868;SDS011;12115;47.128;15.422;2023-03-26T07:16:27;3.85;;;3.10;;
23868;SDS011;12115;47.128;15.422;2023-03-26T07:19:14;4.88;;;3.50;;
23868;SDS011;12115;47.128;15.422;2023-03-26T07:25:15;4.70;;;3.38;;
23868;SDS011;12115;47.128;15.422;2023-03-26T07:28:10;4.95;;;3.10;;
23868;SDS011;12115;47.128;15.422;2023-03-26T07:31:50;4.38;;;3.50;;
23868;SDS011;12115;47.128;15.422;2023-03-26T07:37:35;5.40;;;3.63;;
23868;SDS011;12115;47.128;15.422;2023-03-26T07:46:48;3.60;;;2.25;;
23868;SDS011;12115;47.128;15.422;2023-03-26T07:49:57;4.38;;;2.40;;
23868;SDS011;12115;47.128;15.422;2023-03-26T07:53:00;6.32;;;2.20;;
23868;SDS011;12115;47.128;15.422;2023-03-26T07:55:57;3.25;;;2.70;;
23868;SDS011;12115;47.128;15.422;2023-03-26T07:59:20;4.88;;;3.15;;
23868;SDS011;12115;47.128;15.422;2023-03-26T08:02:38;3.45;;;2.35;;
23868;SDS011;12115;47.128;15.422;2023-03-26T08:08:59;3.88;;;2.40;;
23868;SDS011;12115;47.128;15.422;2023-03-26T08:15:02;3.95;;;2.33;;
23868;SDS011;12115;47.128;15.422;2023-03-26T08:17:55;5.13;;;2.50;;
23868;SDS011;12115;47.128;15.422;2023-03-26T08:20:45;3.08;;;2.72;;
23868;SDS011;12115;47.128;15.422;2023-03-26T08:26:07;7.03;;;3.00;;
23868;SDS011;12115;47.128;15.422;2023-03-26T08:28:45;4.13;;;3.05;;
23868;SDS011;12115;47.128;15.422;2023-03-26T08:31:38;6.93;;;3.75;;
23868;SDS011;12115;47.128;15.422;2023-03-26T08:34:10;5.55;;;3.88;;
23868;SDS011;12115;47.128;15.422;2023-03-26T08:36:38;7.38;;;4.13;;
23868;SDS011;12115;47.128;15.422;2023-03-26T08:39:09;7.05;;;3.85;;
23868;SDS011;12115;47.128;15.422;2023-03-26T09:06:53;7.45;;;3.38;;
23868;SDS011;12115;47.128;15.422;2023-03-26T09:23:26;4.93;;;3.08;;
23868;SDS011;12115;47.128;15.422;2023-03-26T09:43:26;1.60;;;1.50;;
23868;SDS011;12115;47.128;15.422;2023-03-26T10:00:57;2.95;;;1.90;;
23868;SDS011;12115;47.128;15.422;2023-03-26T10:03:40;4.07;;;1.90;;
23868;SDS011;12115;47.128;15.422;2023-03-26T10:20:31;3.40;;;1.85;;
23868;SDS011;12115;47.128;15.422;2023-03-26T10:34:13;3.20;;;1.40;;
23868;SDS011;12115;47.128;15.422;2023-03-26T10:39:59;2.28;;;1.40;;
23868;SDS011;12115;47.128;15.422;2023-03-26T10:54:18;2.67;;;1.35;;
23868;SDS011;12115;47.128;15.422;2023-03-26T10:57:23;4.93;;;2.20;;
23868;SDS011;12115;47.128;15.422;2023-03-26T10:59:55;2.72;;;1.50;;
23868;SDS011;12115;47.128;15.422;2023-03-26T11:13:02;3.05;;;2.17;;
23868;SDS011;12115;47.128;15.422;2023-03-26T11:21:13;3.47;;;1.40;;
23868;SDS011;12115;47.128;15.422;2023-03-26T11:26:59;3.25;;;1.85;;
23868;SDS011;12115;47.128;15.422;2023-03-26T11:32:47;3.10;;;1.70;;
23868;SDS011;12115;47.128;15.422;2023-03-26T11:38:40;3.00;;;1.38;;
23868;SDS011;12115;47.128;15.422;2023-03-26T11:41:20;2.67;;;1.88;;
23868;SDS011;12115;47.128;15.422;2023-03-26T11:47:34;4.85;;;2.10;;
23868;SDS011;12115;47.128;15.422;2023-03-26T11:53:28;2.20;;;1.70;;
23868;SDS011;12115;47.128;15.422;2023-03-26T11:56:04;2.33;;;1.90;;
23868;SDS011;12115;47.128;15.422;2023-03-26T12:01:25;3.83;;;1.75;;
23868;SDS011;12115;47.128;15.422;2023-03-26T12:07:20;4.05;;;2.35;;
23868;SDS011;12115;47.128;15.422;2023-03-26T12:09:58;2.22;;;2.00;;
23868;SDS011;12115;47.128;15.422;2023-03-26T12:12:45;4.32;;;2.85;;
23868;SDS011;12115;47.128;15.422;2023-03-26T12:17:45;3.42;;;2.30;;
23868;SDS011;12115;47.128;15.422;2023-03-26T12:20:33;3.65;;;2.58;;
23868;SDS011;12115;47.128;15.422;2023-03-26T12:23:03;4.50;;;2.42;;
23868;SDS011;12115;47.128;15.422;2023-03-26T12:25:36;3.63;;;2.40;;
23868;SDS011;12115;47.128;15.422;2023-03-26T12:31:26;3.83;;;2.10;;
23868;SDS011;12115;47.128;15.422;2023-03-26T12:36:50;4.25;;;2.45;;
23868;SDS011;12115;47.128;15.422;2023-03-26T12:39:26;2.47;;;1.90;;
23868;SDS011;12115;47.128;15.422;2023-03-26T12:42:27;4.28;;;2.20;;
23868;SDS011;12115;47.128;15.422;2023-03-26T12:45:37;5.90;;;1.73;;
23868;SDS011;12115;47.128;15.422;2023-03-26T12:56:31;3.17;;;2.55;;
23868;SDS011;12115;47.128;15.422;2023-03-26T13:01:42;3.80;;;2.40;;
23868;SDS011;12115;47.128;15.422;2023-03-26T13:07:00;3.25;;;2.78;;
23868;SDS011;12115;47.128;15.422;2023-03-26T13:13:10;4.75;;;3.75;;
23868;SDS011;12115;47.128;15.422;2023-03-26T13:15:58;4.55;;;3.05;;
23868;SDS011;12115;47.128;15.422;2023-03-26T13:32:53;3.00;;;2.50;;
23868;SDS011;12115;47.128;15.422;2023-03-26T14:06:44;5.72;;;2.67;;
23868;SDS011;12115;47.128;15.422;2023-03-26T14:09:38;3.55;;;2.63;;
23868;SDS011;12115;47.128;15.422;2023-03-26T14:27:36;3.67;;;2.15;;
23868;SDS011;12115;47.128;15.422;2023-03-26T14:42:40;4.50;;;2.20;;
23868;SDS011;12115;47.128;15.422;2023-03-26T15:02:41;3.83;;;2.17;;
23868;SDS011;12115;47.128;15.422;2023-03-26T15:15:48;2.67;;;1.85;;
23868;SDS011;12115;47.128;15.422;2023-03-26T15:31:07;2.80;;;1.67;;
23868;SDS011;12115;47.128;15.422;2023-03-26T15:40:20;2.67;;;1.67;;
23868;SDS011;12115;47.128;15.422;2023-03-26T15:43:14;3.67;;;1.70;;
23868;SDS011;12115;47.128;15.422;2023-03-26T15:45:48;6.00;;;2.00;;
23868;SDS011;12115;47.128;15.422;2023-03-26T15:48:43;2.58;;;1.88;;
23868;SDS011;12115;47.128;15.422;2023-03-26T15:51:49;2.30;;;1.48;;
23868;SDS011;12115;47.128;15.422;2023-03-26T15:58:02;3.97;;;1.60;;
23868;SDS011;12115;47.128;15.422;2023-03-26T16:15:54;14.43;;;4.28;;
23868;SDS011;12115;47.128;15.422;2023-03-26T16:18:26;20.98;;;8.35;;
23868;SDS011;12115;47.128;15.422;2023-03-26T16:21:04;26.02;;;9.18;;
23868;SDS011;12115;47.128;15.422;2023-03-26T16:24:17;31.02;;;11.75;;
23868;SDS011;12115;47.128;15.422;2023-03-26T16:27:00;28.60;;;10.88;;
23868;SDS011;12115;47.128;15.422;2023-03-26T16:36:01;8.00;;;3.75;;
23868;SDS011;12115;47.128;15.422;2023-03-26T17:23:09;5.45;;;2.00;;
23868;SDS011;12115;47.128;15.422;2023-03-26T17:25:56;2.90;;;1.80;;
23868;SDS011;12115;47.128;15.422;2023-03-26T17:42:28;2.78;;;1.75;;
23868;SDS011;12115;47.128;15.422;2023-03-26T17:45:13;3.17;;;1.90;;
23868;SDS011;12115;47.128;15.422;2023-03-26T17:50:20;3.67;;;1.70;;
23868;SDS011;12115;47.128;15.422;2023-03-26T17:55:33;3.38;;;1.70;;
23868;SDS011;12115;47.128;15.422;2023-03-26T18:00:38;3.65;;;2.00;;
23868;SDS011;12115;47.128;15.422;2023-03-26T18:05:50;3.78;;;1.77;;
23868;SDS011;12115;47.128;15.422;2023-03-26T18:08:35;3.00;;;1.55;;
23868;SDS011;12115;47.128;15.422;2023-03-26T18:17:50;2.75;;;1.48;;
23868;SDS011;12115;47.128;15.422;2023-03-26T18:20:48;3.03;;;1.40;;
23868;SDS011;12115;47.128;15.422;2023-03-26T18:23:23;3.30;;;1.37;;
23868;SDS011;12115;47.128;15.422;2023-03-26T18:26:09;3.28;;;1.48;;
23868;SDS011;12115;47.128;15.422;2023-03-26T18:32:00;2.37;;;1.00;;
23868;SDS011;12115;47.128;15.422;2023-03-26T18:34:57;1.35;;;1.13;;
23868;SDS011;12115;47.128;15.422;2023-03-26T18:37:32;2.25;;;1.08;;
23868;SDS011;12115;47.128;15.422;2023-03-26T18:40:08;4.07;;;1.60;;
23868;SDS011;12115;47.128;15.422;2023-03-26T18:42:43;1.50;;;1.20;;
23868;SDS011;12115;47.128;15.422;2023-03-26T18:45:30;2.40;;;1.70;;
23868;SDS011;12115;47.128;15.422;2023-03-26T18:50:47;3.28;;;1.80;;
23868;SDS011;12115;47.128;15.422;2023-03-26T18:53:39;2.78;;;1.52;;
23868;SDS011;12115;47.128;15.422;2023-03-26T18:56:18;2.88;;;1.75;;
23868;SDS011;12115;47.128;15.422;2023-03-26T18:58:55;3.28;;;2.13;;
23868;SDS011;12115;47.128;15.422;2023-03-26T19:01:26;3.90;;;2.50;;
23868;SDS011;12115;47.128;15.422;2023-03-26T19:04:00;2.88;;;1.38;;
23868;SDS011;12115;47.128;15.422;2023-03-26T19:06:35;0.65;;;0.65;;
23868;SDS011;12115;47.128;15.422;2023-03-26T19:09:08;0.50;;;0.43;;
23868;SDS011;12115;47.128;15.422;2023-03-26T19:12:06;0.35;;;0.30;;
23868;SDS011;12115;47.128;15.422;2023-03-26T19:14:54;0.30;;;0.25;;
23868;SDS011;12115;47.128;15.422;2023-03-26T19:17:26;2.42;;;0.28;;
23868;SDS011;12115;47.128;15.422;2023-03-26T19:19:58;0.25;;;0.25;;
23868;SDS011;12115;47.128;15.422;2023-03-26T19:22:27;0.63;;;0.30;;
23868;SDS011;12115;47.128;15.422;2023-03-26T19:25:00;0.55;;;0.20;;
23868;SDS011;12115;47.128;15.422;2023-03-26T19:27:30;0.60;;;0.10;;
23868;SDS011;12115;47.128;15.422;2023-03-26T19:30:00;2.60;;;0.30;;
23868;SDS011;12115;47.128;15.422;2023-03-26T19:32:30;1.65;;;0.10;;
23868;SDS011;12115;47.128;15.422;2023-03-26T19:34:59;0.68;;;0.50;;
23868;SDS011;12115;47.128;15.422;2023-03-26T19:37:30;0.90;;;0.35;;
23868;SDS011;12115;47.128;15.422;2023-03-26T19:40:00;1.13;;;0.30;;
23868;SDS011;12115;47.128;15.422;2023-03-26T19:45:37;0.28;;;0.20;;
23868;SDS011;12115;47.128;15.422;2023-03-26T19:48:30;0.47;;;0.30;;
23868;SDS011;12115;47.128;15.422;2023-03-26T19:51:21;1.50;;;0.40;;
23868;SDS011;12115;47.128;15.422;2023-03-26T19:53:54;0.93;;;0.50;;
23868;SDS011;12115;47.128;15.422;2023-03-26T19:56:27;0.25;;;0.20;;
23868;SDS011;12115;47.128;15.422;2023-03-26T19:58:56;1.02;;;0.38;;
23868;SDS011;12115;47.128;15.422;2023-03-26T20:01:25;0.75;;;0.10;;
23868;SDS011;12115;47.128;15.422;2023-03-26T20:03:58;1.75;;;0.25;;
23868;SDS011;12115;47.128;15.422;2023-03-26T20:06:32;0.85;;;0.30;;
23868;SDS011;12115;47.128;15.422;2023-03-26T20:09:11;0.20;;;0.20;;
23868;SDS011;12115;47.128;15.422;2023-03-26T20:11:42;0.25;;;0.10;;
23868;SDS011;12115;47.128;15.422;2023-03-26T20:14:14;0.40;;;0.17;;
23868;SDS011;12115;47.128;15.422;2023-03-26T20:16:44;0.73;;;0.20;;
23868;SDS011;12115;47.128;15.422;2023-03-26T20:19:12;1.45;;;0.60;;
23868;SDS011;12115;47.128;15.422;2023-03-26T20:21:41;0.20;;;0.20;;
23868;SDS011;12115;47.128;15.422;2023-03-26T20:24:11;1.45;;;0.20;;
23868;SDS011;12115;47.128;15.422;2023-03-26T20:26:42;0.63;;;0.60;;
23868;SDS011;12115;47.128;15.422;2023-03-26T20:29:11;0.65;;;0.40;;
23868;SDS011;12115;47.128;15.422;2023-03-26T20:31:40;1.27;;;0.40;;
23868;SDS011;12115;47.128;15.422;2023-03-26T20:34:14;1.88;;;0.32;;
23868;SDS011;12115;47.128;15.422;2023-03-26T20:36:49;1.77;;;0.30;;
23868;SDS011;12115;47.128;15.422;2023-03-26T20:39:27;0.80;;;0.70;;
23868;SDS011;12115;47.128;15.422;2023-03-26T20:41:55;1.52;;;0.70;;
23868;SDS011;12115;47.128;15.422;2023-03-26T20:44:23;0.75;;;0.57;;
23868;SDS011;12115;47.128;15.422;2023-03-26T20:49:43;3.72;;;0.73;;
23868;SDS011;12115;47.128;15.422;2023-03-26T20:52:11;0.82;;;0.63;;
23868;SDS011;12115;47.128;15.422;2023-03-26T20:54:39;2.90;;;1.05;;
23868;SDS011;12115;47.128;15.422;2023-03-26T20:57:13;1.55;;;1.30;;
23868;SDS011;12115;47.128;15.422;2023-03-26T20:59:41;2.75;;;1.75;;
23868;SDS011;12115;47.128;15.422;2023-03-26T21:02:09;1.45;;;1.20;;
23868;SDS011;12115;47.128;15.422;2023-03-26T21:04:37;0.70;;;0.70;;
23868;SDS011;12115;47.128;15.422;2023-03-26T21:07:05;0.77;;;0.57;;
23868;SDS011;12115;47.128;15.422;2023-03-26T21:09:45;0.85;;;0.40;;
23868;SDS011;12115;47.128;15.422;2023-03-26T21:12:47;1.25;;;0.40;;
23868;SDS011;12115;47.128;15.422;2023-03-26T21:15:10;0.77;;;0.40;;
23868;SDS011;12115;47.128;15.422;2023-03-26T21:17:49;0.70;;;0.52;;
23868;SDS011;12115;47.128;15.422;2023-03-26T21:20:17;0.50;;;0.50;;
23868;SDS011;12115;47.128;15.422;2023-03-26T21:28:35;1.77;;;0.82;;
23868;SDS011;12115;47.128;15.422;2023-03-26T21:31:16;1.60;;;0.75;;
23868;SDS011;12115;47.128;15.422;2023-03-26T21:33:46;0.90;;;0.80;;
23868;SDS011;12115;47.128;15.422;2023-03-26T21:36:16;0.75;;;0.65;;
23868;SDS011;12115;47.128;15.422;2023-03-26T21:38:45;2.42;;;0.70;;
23868;SDS011;12115;47.128;15.422;2023-03-26T21:41:38;3.90;;;1.10;;
23868;SDS011;12115;47.128;15.422;2023-03-26T21:44:08;1.70;;;1.00;;
23868;SDS011;12115;47.128;15.422;2023-03-26T21:46:35;2.15;;;0.65;;
23868;SDS011;12115;47.128;15.422;2023-03-26T21:49:03;0.80;;;0.75;;
23868;SDS011;12115;47.128;15.422;2023-03-26T21:51:30;2.90;;;0.55;;
23868;SDS011;12115;47.128;15.422;2023-03-26T21:53:59;2.03;;;0.80;;
23868;SDS011;12115;47.128;15.422;2023-03-26T21:59:29;1.15;;;0.85;;
23868;SDS011;12115;47.128;15.422;2023-03-26T22:04:50;1.50;;;1.00;;
23868;SDS011;12115;47.128;15.422;2023-03-26T22:10:03;2.28;;;0.77;;
23868;SDS011;12115;47.128;15.422;2023-03-26T22:12:30;1.17;;;0.80;;
23868;SDS011;12115;47.128;15.422;2023-03-26T22:14:58;1.33;;;0.88;;
23868;SDS011;12115;47.128;15.422;2023-03-26T22:17:27;2.00;;;0.80;;
23868;SDS011;12115;47.128;15.422;2023-03-26T22:19:54;1.83;;;0.80;;
23868;SDS011;12115;47.128;15.422;2023-03-26T22:22:22;1.20;;;0.88;;
23868;SDS011;12115;47.128;15.422;2023-03-26T22:24:51;0.82;;;0.70;;
23868;SDS011;12115;47.128;15.422;2023-03-26T22:27:19;1.10;;;0.90;;
23868;SDS011;12115;47.128;15.422;2023-03-26T22:29:46;1.45;;;0.95;;
23868;SDS011;12115;47.128;15.422;2023-03-26T22:32:13;2.30;;;1.15;;
23868;SDS011;12115;47.128;15.422;2023-03-26T22:34:41;2.78;;;1.65;;
23868;SDS011;12115;47.128;15.422;2023-03-26T22:37:11;2.27;;;0.80;;
23868;SDS011;12115;47.128;15.422;2023-03-26T22:39:39;4.22;;;0.85;;
23868;SDS011;12115;47.128;15.422;2023-03-26T22:42:06;1.92;;;1.00;;
23868;SDS011;12115;47.128;15.422;2023-03-26T22:44:33;0.90;;;0.60;;
23868;SDS011;12115;47.128;15.422;2023-03-26T22:47:01;0.60;;;0.45;;
23868;SDS011;12115;47.128;15.422;2023-03-26T22:49:28;1.02;;;0.80;;
23868;SDS011;12115;47.128;15.422;2023-03-26T22:51:56;0.75;;;0.57;;
23868;SDS011;12115;47.128;15.422;2023-03-26T22:54:25;0.95;;;0.77;;
23868;SDS011;12115;47.128;15.422;2023-03-26T22:56:53;1.90;;;1.23;;
23868;SDS011;12115;47.128;15.422;2023-03-26T22:59:21;0.90;;;0.80;;
23868;SDS011;12115;47.128;15.422;2023-03-26T23:01:48;0.77;;;0.77;;
23868;SDS011;12115;47.128;15.422;2023-03-26T23:04:16;0.55;;;0.55;;
23868;SDS011;12115;47.128;15.422;2023-03-26T23:06:56;0.98;;;0.80;;
23868;SDS011;12115;47.128;15.422;2023-03-26T23:09:23;0.80;;;0.65;;
23868;SDS011;12115;47.128;15.422;2023-03-26T23:11:50;0.60;;;0.60;;
23868;SDS011;12115;47.128;15.422;2023-03-26T23:14:18;1.98;;;1.00;;
23868;SDS011;12115;47.128;15.422;2023-03-26T23:16:45;1.13;;;0.80;;
23868;SDS011;12115;47.128;15.422;2023-03-26T23:19:12;2.67;;;0.73;;
23868;SDS011;12115;47.128;15.422;2023-03-26T23:21:40;1.40;;;0.70;;
23868;SDS011;12115;47.128;15.422;2023-03-26T23:24:08;4.25;;;0.80;;
23868;SDS011;12115;47.128;15.422;2023-03-26T23:26:35;1.02;;;0.80;;
23868;SDS011;12115;47.128;15.422;2023-03-26T23:29:16;2.80;;;0.93;;
23868;SDS011;12115;47.128;15.422;2023-03-26T23:31:43;1.33;;;0.80;;
23868;SDS011;12115;47.128;15.422;2023-03-26T23:34:11;2.72;;;0.95;;
23868;SDS011;12115;47.128;15.422;2023-03-26T23:36:39;1.27;;;0.68;;
23868;SDS011;12115;47.128;15.422;2023-03-26T23:39:07;2.03;;;0.70;;
23868;SDS011;12115;47.128;15.422;2023-03-26T23:41:42;1.95;;;1.00;;
23868;SDS011;12115;47.128;15.422;2023-03-26T23:44:10;2.42;;;0.88;;
23868;SDS011;12115;47.128;15.422;2023-03-26T23:46:40;3.03;;;0.90;;
23868;SDS011;12115;47.128;15.422;2023-03-26T23:49:08;2.92;;;0.63;;